createdAt,value
2022-07-25T00:01:30.122Z,100573.25
2022-07-25T00:03:56.759Z,100565.00
2022-07-25T00:06:23.034Z,100553.75
2022-07-25T00:08:49.278Z,100577.75
2022-07-25T00:11:15.530Z,100588.34
2022-07-25T00:13:41.772Z,100560.59
2022-07-25T00:16:08.085Z,100512.47
2022-07-25T00:18:34.337Z,100518.84
2022-07-25T00:21:00.581Z,100479.72
2022-07-25T00:23:26.823Z,100488.75
2022-07-25T00:25:53.080Z,100473.16
2022-07-25T00:28:19.327Z,100505.91
2022-07-25T00:30:45.630Z,100518.06
2022-07-25T00:33:11.919Z,100497.78
2022-07-25T00:35:38.160Z,100478.63
2022-07-25T00:38:04.389Z,100474.56
2022-07-25T00:40:30.631Z,100437.13
2022-07-25T00:42:56.876Z,100449.16
2022-07-25T00:45:23.127Z,100492.19
2022-07-25T00:47:49.367Z,100465.50
2022-07-25T00:50:15.730Z,100516.63
2022-07-25T00:52:42.006Z,100475.34
2022-07-25T00:55:08.300Z,100514.13
2022-07-25T00:57:34.547Z,100502.44
2022-07-25T01:00:00.817Z,100548.06
2022-07-25T01:02:27.135Z,100558.03
2022-07-25T01:04:53.396Z,100559.88
2022-07-25T01:07:19.657Z,100539.34
2022-07-25T01:09:45.899Z,100566.25
2022-07-25T01:12:12.141Z,100587.28
2022-07-25T01:14:38.606Z,100598.00
2022-07-25T01:17:04.867Z,100605.91
2022-07-25T01:19:31.116Z,100623.53
2022-07-25T01:21:57.365Z,100621.34
2022-07-25T01:24:23.598Z,100608.38
2022-07-25T01:26:49.844Z,100588.00
2022-07-25T01:29:16.081Z,100570.69
2022-07-25T01:31:42.331Z,100557.78
2022-07-25T01:34:08.993Z,100547.19
2022-07-25T01:36:35.635Z,100552.50
2022-07-25T01:39:01.881Z,100586.59
2022-07-25T01:41:28.131Z,100528.41
2022-07-25T01:43:54.368Z,100484.13
2022-07-25T01:46:20.659Z,100467.78
2022-07-25T01:48:47.027Z,100455.22
2022-07-25T01:51:13.330Z,100501.00
2022-07-25T01:53:39.572Z,100527.63
2022-07-25T01:56:06.059Z,100489.75
2022-07-25T01:58:34.498Z,100481.94
2022-07-25T02:01:00.775Z,100515.44
2022-07-25T02:03:27.062Z,100512.28
2022-07-25T02:05:53.332Z,100501.09
2022-07-25T02:08:19.591Z,100493.91
2022-07-25T02:10:45.875Z,100504.00
2022-07-25T02:13:12.144Z,100551.00
2022-07-25T02:15:38.390Z,100540.59
2022-07-25T02:18:04.646Z,100548.53
2022-07-25T02:20:30.903Z,100519.59
2022-07-25T02:22:57.160Z,100513.03
2022-07-25T02:25:23.403Z,100504.16
2022-07-25T02:27:49.666Z,100467.91
2022-07-25T02:30:15.910Z,100473.50
2022-07-25T02:32:42.157Z,100449.69
2022-07-25T02:35:13.174Z,100459.00
2022-07-25T02:37:39.781Z,100435.19
2022-07-25T02:40:06.341Z,100446.69
2022-07-25T02:42:32.591Z,100486.84
2022-07-25T02:44:58.842Z,100488.56
2022-07-25T02:47:25.086Z,100481.09
2022-07-25T02:49:51.326Z,100458.06
2022-07-25T02:52:17.583Z,100486.69
2022-07-25T02:54:43.830Z,100493.41
2022-07-25T02:57:10.086Z,100513.41
2022-07-25T02:59:36.321Z,100505.38
2022-07-25T03:02:02.582Z,100484.00
2022-07-25T03:04:28.887Z,100536.94
2022-07-25T03:06:55.186Z,100528.69
2022-07-25T03:09:21.425Z,100521.34
2022-07-25T03:11:47.669Z,100551.97
2022-07-25T03:14:13.910Z,100499.38
2022-07-25T03:16:40.175Z,100489.44
2022-07-25T03:19:06.440Z,100434.34
2022-07-25T03:21:32.694Z,100375.84
2022-07-25T03:23:58.924Z,100299.25
2022-07-25T03:26:25.180Z,100279.31
2022-07-25T03:28:51.612Z,100347.03
2022-07-25T03:31:18.215Z,100361.38
2022-07-25T03:33:44.482Z,100412.09
2022-07-25T03:36:10.730Z,100374.41
2022-07-25T03:38:37.130Z,100364.94
2022-07-25T03:41:03.353Z,100315.13
2022-07-25T03:43:30.443Z,100297.38
2022-07-25T03:45:56.724Z,100336.47
2022-07-25T03:48:23.146Z,100328.22
2022-07-25T03:50:49.411Z,100312.94
2022-07-25T03:53:15.653Z,100282.09
2022-07-25T03:55:41.896Z,100295.84
2022-07-25T03:58:08.142Z,100243.50
2022-07-25T04:00:34.390Z,100272.00
2022-07-25T04:03:01.099Z,100211.22
2022-07-25T04:05:27.335Z,100211.22
2022-07-25T04:07:53.587Z,100285.22
2022-07-25T04:10:19.929Z,100260.16
2022-07-25T04:12:46.190Z,100232.41
2022-07-25T04:15:12.426Z,100179.44
2022-07-25T04:17:39.604Z,100156.97
2022-07-25T04:20:06.350Z,100108.63
2022-07-25T04:22:33.651Z,100110.19
2022-07-25T04:24:59.914Z,100046.25
2022-07-25T04:27:26.148Z,100162.50
2022-07-25T04:29:52.397Z,100138.34
2022-07-25T04:32:23.128Z,100131.03
2022-07-25T04:34:49.866Z,100126.16
2022-07-25T04:37:16.118Z,100118.69
2022-07-25T04:39:42.366Z,100095.56
2022-07-25T04:42:08.605Z,100133.13
2022-07-25T04:44:34.935Z,100090.50
2022-07-25T04:47:01.191Z,100011.72
2022-07-25T04:49:27.424Z,100028.41
2022-07-25T04:51:53.693Z,100065.50
2022-07-25T04:54:19.940Z,99983.06
2022-07-25T04:56:46.196Z,100005.38
2022-07-25T04:59:12.428Z,99961.97
2022-07-25T05:01:38.737Z,99895.34
2022-07-25T05:04:05.383Z,99828.41
2022-07-25T05:06:31.845Z,99940.25
2022-07-25T05:08:58.073Z,99923.22
2022-07-25T05:11:24.305Z,99829.25
2022-07-25T05:13:50.550Z,99952.09
2022-07-25T05:16:16.823Z,99881.69
2022-07-25T05:18:43.154Z,99979.88
2022-07-25T05:21:09.994Z,99878.47
2022-07-25T05:23:36.250Z,99942.81
2022-07-25T05:26:02.483Z,99901.91
2022-07-25T05:28:28.726Z,99943.13
2022-07-25T05:30:54.958Z,99873.09
2022-07-25T05:33:21.197Z,99903.03
2022-07-25T05:35:47.425Z,99875.56
2022-07-25T05:38:13.686Z,99923.66
2022-07-25T05:40:39.921Z,99929.28
2022-07-25T05:43:06.176Z,99969.00
2022-07-25T05:45:32.413Z,100006.69
2022-07-25T05:47:58.654Z,99972.63
2022-07-25T05:50:24.920Z,99822.34
2022-07-25T05:52:51.251Z,99556.88
2022-07-25T05:55:17.549Z,99660.13
2022-07-25T05:57:43.820Z,99402.44
2022-07-25T06:00:10.352Z,99150.72
2022-07-25T06:02:36.748Z,99147.03
2022-07-25T06:05:03.097Z,99361.66
2022-07-25T06:07:29.347Z,99312.59
2022-07-25T06:09:55.594Z,99494.09
2022-07-25T06:12:21.842Z,99374.72
2022-07-25T06:14:50.583Z,99399.25
2022-07-25T06:17:17.029Z,99276.03
2022-07-25T06:19:43.262Z,99278.28
2022-07-25T06:22:09.501Z,99139.34
2022-07-25T06:24:35.748Z,99169.16
2022-07-25T06:27:01.990Z,99272.38
2022-07-25T06:29:28.246Z,99339.06
2022-07-25T06:31:54.542Z,99289.63
2022-07-25T06:34:20.800Z,99207.69
2022-07-25T06:36:47.048Z,99261.78
2022-07-25T06:39:13.304Z,99336.66
2022-07-25T06:41:39.572Z,99223.19
2022-07-25T06:44:06.164Z,99403.25
2022-07-25T06:46:32.632Z,99280.22
2022-07-25T06:48:59.091Z,99418.56
2022-07-25T06:51:25.401Z,99363.13
2022-07-25T06:53:51.655Z,99647.69
2022-07-25T06:56:17.978Z,99527.50
2022-07-25T06:58:44.241Z,99472.47
2022-07-25T07:01:10.552Z,99537.50
2022-07-25T07:03:36.998Z,99441.38
2022-07-25T07:06:06.380Z,99376.84
2022-07-25T07:08:32.681Z,99149.78
2022-07-25T07:10:58.941Z,99063.31
2022-07-25T07:13:25.177Z,99035.84
2022-07-25T07:15:51.633Z,98998.13
2022-07-25T07:18:18.161Z,99168.03
2022-07-25T07:20:44.388Z,99066.19
2022-07-25T07:23:10.630Z,98787.53
2022-07-25T07:25:36.873Z,99098.81
2022-07-25T07:28:03.628Z,99200.94
2022-07-25T07:30:58.732Z,99319.19
2022-07-25T07:33:16.154Z,98947.97
2022-07-25T07:35:45.353Z,99354.78
2022-07-25T07:38:11.599Z,99388.69
2022-07-25T07:40:37.842Z,99631.53
2022-07-25T07:43:04.085Z,99228.63
2022-07-25T07:45:30.325Z,99229.47
2022-07-25T07:47:56.553Z,99122.38
2022-07-25T07:50:23.518Z,99189.13
2022-07-25T07:52:49.843Z,99279.31
2022-07-25T07:55:16.090Z,98986.69
2022-07-25T07:57:42.328Z,99194.34
2022-07-25T08:00:11.450Z,99449.50
2022-07-25T08:02:43.890Z,99518.25
2022-07-25T08:05:10.215Z,99378.03
2022-07-25T08:07:36.455Z,99453.56
2022-07-25T08:10:02.715Z,99391.75
2022-07-25T08:12:28.956Z,99201.56
2022-07-25T08:14:55.216Z,99016.94
2022-07-25T08:17:26.494Z,99075.47
2022-07-25T08:19:54.646Z,99094.66
2022-07-25T08:22:20.880Z,99201.53
2022-07-25T08:24:47.131Z,99099.84
2022-07-25T08:27:13.361Z,98899.47
2022-07-25T08:29:39.607Z,98941.31
2022-07-25T08:32:05.857Z,98829.25
2022-07-25T08:34:32.114Z,98589.41
2022-07-25T08:36:58.430Z,98765.47
2022-07-25T08:39:24.684Z,99045.56
2022-07-25T08:41:50.913Z,98839.00
2022-07-25T08:44:17.213Z,98888.84
2022-07-25T08:46:43.613Z,98871.13
2022-07-25T08:49:10.018Z,99148.13
2022-07-25T08:51:36.376Z,99238.00
2022-07-25T08:54:02.648Z,99283.38
2022-07-25T08:56:28.902Z,98494.06
2022-07-25T08:58:55.155Z,98761.31
2022-07-25T09:01:21.463Z,98772.13
2022-07-25T09:03:47.835Z,99007.34
2022-07-25T09:06:15.591Z,99052.50
2022-07-25T09:08:57.503Z,98659.00
2022-07-25T09:11:33.599Z,98367.94
2022-07-25T09:14:00.307Z,99013.41
2022-07-25T09:16:32.925Z,98334.03
2022-07-25T09:19:06.177Z,98469.19
2022-07-25T09:21:32.431Z,98843.41
2022-07-25T09:24:07.681Z,98898.50
2022-07-25T09:26:53.972Z,99466.19
2022-07-25T09:29:21.320Z,98710.94
2022-07-25T09:31:47.688Z,98569.47
2022-07-25T09:34:16.351Z,98467.16
2022-07-25T09:36:55.028Z,98765.00
2022-07-25T09:39:21.309Z,98265.03
2022-07-25T09:41:47.561Z,98247.88
2022-07-25T09:44:16.944Z,98523.03
2022-07-25T09:46:43.316Z,98213.63
2022-07-25T09:49:09.641Z,98144.66
2022-07-25T09:51:35.919Z,98170.66
2022-07-25T09:54:05.456Z,98417.94
2022-07-25T09:56:32.123Z,98574.56
2022-07-25T09:58:58.430Z,98569.00
2022-07-25T10:01:26.396Z,98654.00
2022-07-25T10:03:52.728Z,98257.84
2022-07-25T10:06:30.478Z,98552.53
2022-07-25T10:08:56.834Z,98741.56
2022-07-25T10:11:23.738Z,98405.19
2022-07-25T10:13:49.968Z,98485.28
2022-07-25T10:16:20.345Z,98508.38
2022-07-25T10:18:53.502Z,98602.94
2022-07-25T10:21:28.332Z,98351.69
2022-07-25T10:24:01.080Z,98297.00
2022-07-25T10:26:27.327Z,98655.06
2022-07-25T10:28:53.642Z,98189.34
2022-07-25T10:31:26.452Z,98673.97
2022-07-25T10:33:56.257Z,98201.81
2022-07-25T10:36:22.575Z,98346.13
2022-07-25T10:38:50.803Z,98020.16
2022-07-25T10:41:17.043Z,98279.44
2022-07-25T10:43:48.374Z,98341.63
2022-07-25T10:46:19.510Z,98466.91
2022-07-25T10:48:56.308Z,98248.63
2022-07-25T10:51:25.765Z,98368.63
2022-07-25T10:53:52.009Z,98266.94
2022-07-25T10:56:19.081Z,98295.06
2022-07-25T10:58:49.864Z,98379.09
2022-07-25T11:01:22.930Z,98329.59
2022-07-25T11:03:49.674Z,98316.44
2022-07-25T11:06:16.126Z,98208.66
2022-07-25T11:08:42.810Z,98499.31
2022-07-25T11:11:09.244Z,98343.59
2022-07-25T11:13:39.151Z,98427.50
2022-07-25T11:16:05.601Z,98299.41
2022-07-25T11:18:35.533Z,98550.53
2022-07-25T11:21:06.190Z,98479.56
2022-07-25T11:23:33.270Z,98744.31
2022-07-25T11:26:09.805Z,98831.88
2022-07-25T11:28:39.770Z,98475.78
2022-07-25T11:31:06.077Z,98291.81
2022-07-25T11:33:32.318Z,98339.00
2022-07-25T11:35:58.555Z,98523.50
2022-07-25T11:38:25.226Z,98523.81
2022-07-25T11:40:52.786Z,98306.78
2022-07-25T11:43:19.642Z,98317.72
2022-07-25T11:45:55.009Z,98300.78
2022-07-25T11:48:21.294Z,98382.47
2022-07-25T11:50:47.532Z,98581.94
2022-07-25T11:53:15.149Z,98696.94
2022-07-25T11:55:42.426Z,98906.00
2022-07-25T11:58:08.994Z,98795.66
2022-07-25T12:00:45.035Z,98978.34
2022-07-25T12:03:15.573Z,98996.94
2022-07-25T12:05:45.556Z,98715.06
2022-07-25T12:08:15.436Z,98781.44
2022-07-25T12:10:41.806Z,98731.88
2022-07-25T12:13:08.081Z,99454.28
2022-07-25T12:15:37.097Z,99101.38
2022-07-25T12:18:03.501Z,98698.63
2022-07-25T12:20:33.261Z,98448.94
2022-07-25T12:23:00.276Z,98551.75
2022-07-25T12:25:30.850Z,98290.03
2022-07-25T12:27:57.496Z,98358.47
2022-07-25T12:30:23.834Z,98683.78
2022-07-25T12:32:50.123Z,98783.44
2022-07-25T12:35:16.358Z,99147.94
2022-07-25T12:37:42.606Z,98512.72
2022-07-25T12:40:09.393Z,98322.03
2022-07-25T12:42:35.681Z,98708.69
2022-07-25T12:45:01.923Z,98472.94
2022-07-25T12:47:28.206Z,98623.88
2022-07-25T12:49:54.555Z,99319.13
2022-07-25T12:52:20.861Z,98972.94
2022-07-25T12:54:47.130Z,98919.81
2022-07-25T12:57:13.610Z,98670.09
2022-07-25T12:59:39.902Z,98668.41
2022-07-25T13:02:06.195Z,98950.81
2022-07-25T13:04:32.478Z,99244.59
2022-07-25T13:06:58.710Z,98973.66
2022-07-25T13:09:25.198Z,98637.31
2022-07-25T13:11:51.541Z,98805.09
2022-07-25T13:14:17.793Z,98657.81
2022-07-25T13:16:44.344Z,98768.69
2022-07-25T13:19:11.224Z,98883.81
2022-07-25T13:21:37.626Z,98991.75
2022-07-25T13:24:03.958Z,99084.09
2022-07-25T13:26:30.714Z,99357.31
2022-07-25T13:28:59.925Z,99302.44
2022-07-25T13:31:26.447Z,99001.31
2022-07-25T13:33:52.744Z,99587.69
2022-07-25T13:36:18.977Z,99452.50
2022-07-25T13:38:45.233Z,99753.38
2022-07-25T13:41:11.465Z,99477.88
2022-07-25T13:43:37.717Z,99325.97
2022-07-25T13:46:04.020Z,99152.88
2022-07-25T13:48:31.410Z,99767.34
2022-07-25T13:50:57.933Z,99232.19
2022-07-25T13:53:29.464Z,99303.34
2022-07-25T13:55:56.431Z,99012.00
2022-07-25T13:58:22.688Z,98976.19
2022-07-25T14:00:48.951Z,98793.88
2022-07-25T14:03:15.402Z,98867.75
2022-07-25T14:05:41.665Z,98379.06
2022-07-25T14:08:07.900Z,98724.53
2022-07-25T14:10:34.232Z,98647.63
2022-07-25T14:13:00.663Z,98352.44
2022-07-25T14:15:26.921Z,98568.41
2022-07-25T14:17:53.162Z,98451.44
2022-07-25T14:20:19.403Z,98469.88
2022-07-25T14:22:45.645Z,98513.03
2022-07-25T14:25:11.966Z,98277.41
2022-07-25T14:27:38.338Z,98436.56
2022-07-25T14:30:05.278Z,98509.47
2022-07-25T14:32:31.523Z,98467.66
2022-07-25T14:34:57.777Z,98428.41
2022-07-25T14:37:24.466Z,98559.03
2022-07-25T14:39:50.709Z,98510.34
2022-07-25T14:42:16.951Z,98575.47
2022-07-25T14:44:43.203Z,98529.16
2022-07-25T14:47:12.562Z,98744.13
2022-07-25T14:49:39.804Z,98932.41
2022-07-25T14:52:06.030Z,98735.53
2022-07-25T14:54:32.283Z,99216.44
2022-07-25T14:56:58.520Z,99252.94
2022-07-25T14:59:24.758Z,99311.94
2022-07-25T15:01:50.994Z,99179.19
2022-07-25T15:04:17.299Z,99023.28
2022-07-25T15:06:43.615Z,98970.19
2022-07-25T15:09:10.321Z,98996.38
2022-07-25T15:11:36.864Z,98903.13
2022-07-25T15:14:03.093Z,99129.66
2022-07-25T15:16:29.387Z,99357.34
2022-07-25T15:21:42.116Z,99453.78
2022-07-25T15:24:08.365Z,99413.09
2022-07-25T15:26:36.327Z,99387.34
2022-07-25T15:29:02.578Z,99481.63
2022-07-25T15:31:28.905Z,99610.44
2022-07-25T15:33:55.169Z,99724.22
2022-07-25T15:36:25.709Z,99723.06
2022-07-25T15:38:55.159Z,99732.97
2022-07-25T15:41:21.426Z,99765.94
2022-07-25T15:43:47.663Z,99734.47
2022-07-25T15:46:13.953Z,99750.94
2022-07-25T15:48:40.305Z,99763.16
2022-07-25T15:51:06.613Z,99747.38
2022-07-25T15:53:32.841Z,99593.91
2022-07-25T15:55:59.086Z,99535.13
2022-07-25T15:58:25.322Z,99560.91
2022-07-25T16:00:51.653Z,99619.09
2022-07-25T16:03:17.915Z,99658.59
2022-07-25T16:05:44.158Z,99884.31
2022-07-25T16:08:10.404Z,99740.00
2022-07-25T16:10:36.701Z,99658.25
2022-07-25T16:13:02.940Z,99655.25
2022-07-25T16:15:29.205Z,99627.25
2022-07-25T16:18:00.110Z,99691.41
2022-07-25T16:20:28.537Z,99821.50
2022-07-25T16:22:54.771Z,99844.13
2022-07-25T16:25:21.611Z,99946.94
2022-07-25T16:27:47.854Z,99955.72
2022-07-25T16:30:14.247Z,99851.44
2022-07-25T16:32:40.474Z,99904.69
2022-07-25T16:35:06.806Z,100074.91
2022-07-25T16:37:33.057Z,100255.56
2022-07-25T16:39:59.311Z,100372.91
2022-07-25T16:42:25.561Z,100369.97
2022-07-25T16:44:51.825Z,100352.78
2022-07-25T16:47:18.061Z,100365.44
2022-07-25T16:49:44.394Z,100369.06
2022-07-25T16:52:10.734Z,100347.75
2022-07-25T16:54:36.983Z,100321.81
2022-07-25T16:57:03.280Z,100333.53
2022-07-25T16:59:29.519Z,100341.34
2022-07-25T17:01:55.814Z,100321.69
2022-07-25T17:04:22.664Z,100310.63
2022-07-25T17:06:49.019Z,100303.84
2022-07-25T17:09:15.276Z,100311.91
2022-07-25T17:11:41.531Z,100291.69
2022-07-25T17:14:07.782Z,100278.22
2022-07-25T17:16:34.118Z,100263.56
2022-07-25T17:19:01.421Z,100264.41
2022-07-25T17:21:27.674Z,100258.69
2022-07-25T17:23:53.906Z,100283.44
2022-07-25T17:26:20.339Z,100289.91
2022-07-25T17:28:46.671Z,100316.50
2022-07-25T17:31:13.013Z,100303.00
2022-07-25T17:33:39.264Z,100303.81
2022-07-25T17:36:05.636Z,100331.22
2022-07-25T17:38:34.979Z,100315.44
2022-07-25T17:41:01.504Z,100297.50
2022-07-25T17:43:27.740Z,100285.59
2022-07-25T17:45:54.036Z,100302.16
2022-07-25T17:48:20.269Z,100327.25
2022-07-25T17:50:46.525Z,100342.81
2022-07-25T17:53:14.142Z,100361.41
2022-07-25T17:55:41.861Z,100362.84
2022-07-25T17:58:11.104Z,100330.97
2022-07-25T18:00:37.391Z,100322.31
2022-07-25T18:03:03.781Z,100320.00
2022-07-25T18:05:30.082Z,100316.78
2022-07-25T18:07:56.338Z,100287.56
2022-07-25T18:10:22.789Z,100302.97
2022-07-25T18:12:49.117Z,100340.47
2022-07-25T18:15:15.397Z,100348.34
2022-07-25T18:17:44.924Z,100339.41
2022-07-25T18:20:11.432Z,100352.38
2022-07-25T18:22:37.696Z,100344.09
2022-07-25T18:25:05.254Z,100330.09
2022-07-25T18:27:31.503Z,100315.28
2022-07-25T18:29:57.755Z,100309.84
2022-07-25T18:32:24.003Z,100296.09
2022-07-25T18:34:50.248Z,100288.94
2022-07-25T18:37:16.510Z,100294.63
2022-07-25T18:39:42.746Z,100303.22
2022-07-25T18:42:08.994Z,100287.09
2022-07-25T18:44:35.239Z,100270.72
2022-07-25T18:47:01.638Z,100276.16
2022-07-25T18:49:28.147Z,100287.63
2022-07-25T18:51:54.403Z,100290.22
2022-07-25T18:54:20.647Z,100292.22
2022-07-25T18:56:46.890Z,100321.97
2022-07-25T18:59:13.138Z,100315.56
2022-07-25T19:01:39.416Z,100303.13
2022-07-25T19:04:05.982Z,100302.72
2022-07-25T19:06:32.542Z,100278.53
2022-07-25T19:08:58.792Z,100258.75
2022-07-25T19:11:25.038Z,100255.88
2022-07-25T19:13:51.647Z,100239.78
2022-07-25T19:16:18.046Z,100198.38
2022-07-25T19:18:44.375Z,100214.97
2022-07-25T19:21:10.628Z,100206.44
2022-07-25T19:23:36.947Z,100234.84
2022-07-25T19:26:03.189Z,100236.19
2022-07-25T19:28:29.425Z,100227.13
2022-07-25T19:30:56.058Z,100239.53
2022-07-25T19:33:22.341Z,100233.03
2022-07-25T19:35:48.587Z,100190.84
2022-07-25T19:38:14.833Z,100180.44
2022-07-25T19:40:41.068Z,100159.19
2022-07-25T19:43:07.324Z,100160.50
2022-07-25T19:45:33.556Z,100177.53
2022-07-25T19:47:59.835Z,100156.75
2022-07-25T19:50:26.082Z,100169.13
2022-07-25T19:52:52.332Z,100206.31
2022-07-25T19:55:18.578Z,100237.13
2022-07-25T19:57:44.845Z,100237.81
2022-07-25T20:00:11.234Z,100216.97
2022-07-25T20:02:40.481Z,100196.59
2022-07-25T20:05:07.071Z,100177.78
2022-07-25T20:07:33.314Z,100167.78
2022-07-25T20:09:59.560Z,100150.94
2022-07-25T20:12:25.834Z,100167.78
2022-07-25T20:14:52.068Z,100184.50
2022-07-25T20:17:18.876Z,100207.81
2022-07-25T20:19:45.269Z,100248.56
2022-07-25T20:22:11.532Z,100232.94
2022-07-25T20:24:37.765Z,100263.38
2022-07-25T20:27:04.022Z,100255.09
2022-07-25T20:29:30.259Z,100237.06
2022-07-25T20:31:56.514Z,100290.38
2022-07-25T20:34:22.768Z,100337.53
2022-07-25T20:36:49.009Z,100302.88
2022-07-25T20:39:15.245Z,100339.69
2022-07-25T20:41:41.504Z,100344.16
2022-07-25T20:44:10.840Z,100352.25
2022-07-25T20:46:37.126Z,100351.03
2022-07-25T20:49:03.830Z,100354.25
2022-07-25T20:51:30.294Z,100393.81
2022-07-25T20:53:56.580Z,100409.00
2022-07-25T20:56:24.841Z,100378.56
2022-07-25T20:58:51.078Z,100379.22
2022-07-25T21:01:17.386Z,100372.09
2022-07-25T21:03:43.671Z,100336.97
2022-07-25T21:06:09.933Z,100309.47
2022-07-25T21:08:36.178Z,100293.53
2022-07-25T21:11:02.429Z,100287.28
2022-07-25T21:13:32.821Z,100305.44
2022-07-25T21:15:59.414Z,100288.75
2022-07-25T21:18:25.666Z,100268.63
2022-07-25T21:20:51.915Z,100249.91
2022-07-25T21:23:18.157Z,100274.44
2022-07-25T21:25:44.400Z,100307.53
2022-07-25T21:28:10.639Z,100333.66
2022-07-25T21:30:36.875Z,100361.00
2022-07-25T21:33:03.237Z,100356.81
2022-07-25T21:35:51.780Z,100366.16
2022-07-25T21:38:26.738Z,100363.69
2022-07-25T21:40:54.720Z,100351.41
2022-07-25T21:43:20.968Z,100364.13
2022-07-25T21:45:47.276Z,100415.28
2022-07-25T21:48:13.550Z,100423.97
2022-07-25T21:50:42.310Z,100445.72
2022-07-25T21:53:11.103Z,100449.59
2022-07-25T21:55:37.588Z,100441.81
2022-07-25T21:58:03.846Z,100426.88
2022-07-25T22:00:33.190Z,100435.25
2022-07-25T22:02:59.713Z,100454.28
2022-07-25T22:05:26.005Z,100463.94
2022-07-25T22:07:52.253Z,100448.78
2022-07-25T22:10:18.744Z,100431.97
2022-07-25T22:12:45.007Z,100430.09
2022-07-25T22:15:12.051Z,100432.16
2022-07-25T22:17:48.883Z,100419.06
2022-07-25T22:20:16.712Z,100406.25
2022-07-25T22:22:42.963Z,100398.34
2022-07-25T22:25:09.361Z,100405.97
2022-07-25T22:27:35.611Z,100428.41
2022-07-25T22:30:02.037Z,100397.09
2022-07-25T22:32:28.291Z,100416.06
2022-07-25T22:34:54.538Z,100385.41
2022-07-25T22:37:20.787Z,100360.00
2022-07-25T22:39:47.036Z,100349.06
2022-07-25T22:42:16.334Z,100376.97
2022-07-25T22:44:42.676Z,100381.97
2022-07-25T22:47:08.929Z,100349.22
2022-07-25T22:49:35.164Z,100326.16
2022-07-25T22:52:01.411Z,100349.84
2022-07-25T22:54:27.662Z,100339.88
2022-07-25T22:56:53.891Z,100325.84
2022-07-25T22:59:20.134Z,100328.97
2022-07-25T23:01:46.367Z,100294.53
2022-07-25T23:04:12.670Z,100310.47
2022-07-25T23:06:38.930Z,100346.63
2022-07-25T23:09:05.536Z,100353.44
2022-07-25T23:11:31.962Z,100320.13
2022-07-25T23:13:58.205Z,100361.88
2022-07-25T23:16:24.457Z,100336.16
2022-07-25T23:18:50.744Z,100348.63
2022-07-25T23:21:16.991Z,100344.41
2022-07-25T23:23:43.233Z,100295.38
2022-07-25T23:26:09.489Z,100312.78
2022-07-25T23:28:35.764Z,100295.97
2022-07-25T23:31:02.042Z,100285.06
2022-07-25T23:33:28.459Z,100254.19
2022-07-25T23:35:55.463Z,100275.41
2022-07-25T23:38:21.890Z,100305.50
2022-07-25T23:40:48.329Z,100338.19
2022-07-25T23:43:15.162Z,100318.84
2022-07-25T23:45:49.778Z,100349.66
2022-07-25T23:48:17.328Z,100374.38
2022-07-25T23:50:43.560Z,100377.78
2022-07-25T23:53:09.807Z,100387.91
2022-07-25T23:55:36.051Z,100371.41
2022-07-25T23:58:13.243Z,100355.22
